Tune, Denmark
Current Conditions -  °F | °C
As of 2:20 PM on Tuesday 21 Oct 2014 (Local Time) from EKRK Reporting Station
Broken Clouds Broken Clouds  
Wind Chill: 13°   Ceiling: 2100
Heat Index: 13°   Visibility: 6mi
Dew Point: 10°   Wind: 12mph
Humidity: 82%   Direction: 160°SSE
Pressure: 29.5"   Gusts: NA
Location:  55.6°N, 12.18°E
Report Text: EKRK 211220Z AUTO 16010KT 9999NDV FEW013/// SCT018///BKN021/// BKN029/// 13/10 Q0999
Loading
Personal Weather Stations






























Interactive Weather Map
Tropical Storm Tracking
New forecast layout! Learn more

10-Day Weather Forecast

Advertisements
Track Severe Weather on mobile